sensor_id;sensor_type;location;lat;lon;timestamp;P1;P2;P0
52290;PMS5003;39663;45.432;28.050;2023-09-19T00:00:13;15.0;14.0;
52290;PMS5003;39663;45.432;28.050;2023-09-19T00:00:45;19.0;16.0;
52290;PMS5003;39663;45.432;28.050;2023-09-19T00:01:16;15.0;15.0;
52290;PMS5003;39663;45.432;28.050;2023-09-19T00:01:48;18.0;18.0;
52290;PMS5003;39663;45.432;28.050;2023-09-19T00:02:19;20.0;19.0;
52290;PMS5003;39663;45.432;28.050;2023-09-19T00:02:52;27.0;25.0;
52290;PMS5003;39663;45.432;28.050;2023-09-19T00:03:24;16.0;16.0;
52290;PMS5003;39663;45.432;28.050;2023-09-19T00:03:55;15.0;14.0;
52290;PMS5003;39663;45.432;28.050;2023-09-19T00:04:27;24.0;16.0;
52290;PMS5003;39663;45.432;28.050;2023-09-19T00:05:01;19.0;17.0;
52290;PMS5003;39663;45.432;28.050;2023-09-19T00:05:34;19.0;18.0;
52290;PMS5003;39663;45.432;28.050;2023-09-19T00:06:06;16.0;16.0;
52290;PMS5003;39663;45.432;28.050;2023-09-19T00:06:38;17.0;17.0;
52290;PMS5003;39663;45.432;28.050;2023-09-19T00:07:10;17.0;14.0;
52290;PMS5003;39663;45.432;28.050;2023-09-19T00:07:41;17.0;15.0;
52290;PMS5003;39663;45.432;28.050;2023-09-19T00:08:13;16.0;16.0;
52290;PMS5003;39663;45.432;28.050;2023-09-19T00:08:44;18.0;15.0;
52290;PMS5003;39663;45.432;28.050;2023-09-19T00:09:15;17.0;16.0;
52290;PMS5003;39663;45.432;28.050;2023-09-19T00:09:47;17.0;17.0;
52290;PMS5003;39663;45.432;28.050;2023-09-19T00:10:18;22.0;21.0;
52290;PMS5003;39663;45.432;28.050;2023-09-19T00:10:50;14.0;14.0;
52290;PMS5003;39663;45.432;28.050;2023-09-19T00:11:21;16.0;16.0;
52290;PMS5003;39663;45.432;28.050;2023-09-19T00:11:53;25.0;22.0;
52290;PMS5003;39663;45.432;28.050;2023-09-19T00:12:24;20.0;17.0;
52290;PMS5003;39663;45.432;28.050;2023-09-19T00:12:56;18.0;16.0;
52290;PMS5003;39663;45.432;28.050;2023-09-19T00:13:28;16.0;16.0;
52290;PMS5003;39663;45.432;28.050;2023-09-19T00:14:00;16.0;16.0;
52290;PMS5003;39663;45.432;28.050;2023-09-19T00:14:31;21.0;21.0;
52290;PMS5003;39663;45.432;28.050;2023-09-19T00:15:03;22.0;20.0;
52290;PMS5003;39663;45.432;28.050;2023-09-19T00:15:37;17.0;16.0;
52290;PMS5003;39663;45.432;28.050;2023-09-19T00:16:10;16.0;16.0;
52290;PMS5003;39663;45.432;28.050;2023-09-19T00:16:41;22.0;17.0;
52290;PMS5003;39663;45.432;28.050;2023-09-19T00:17:13;14.0;14.0;
52290;PMS5003;39663;45.432;28.050;2023-09-19T00:17:44;17.0;14.0;
52290;PMS5003;39663;45.432;28.050;2023-09-19T00:18:16;20.0;16.0;
52290;PMS5003;39663;45.432;28.050;2023-09-19T00:18:47;19.0;17.0;
52290;PMS5003;39663;45.432;28.050;2023-09-19T00:19:19;19.0;17.0;
52290;PMS5003;39663;45.432;28.050;2023-09-19T00:19:50;12.0;12.0;
52290;PMS5003;39663;45.432;28.050;2023-09-19T00:20:22;22.0;19.0;
52290;PMS5003;39663;45.432;28.050;2023-09-19T00:20:59;17.0;17.0;
52290;PMS5003;39663;45.432;28.050;2023-09-19T00:21:31;20.0;17.0;
52290;PMS5003;39663;45.432;28.050;2023-09-19T00:22:02;17.0;17.0;
52290;PMS5003;39663;45.432;28.050;2023-09-19T00:22:34;19.0;16.0;
52290;PMS5003;39663;45.432;28.050;2023-09-19T00:23:09;19.0;15.0;
52290;PMS5003;39663;45.432;28.050;2023-09-19T00:23:41;20.0;18.0;
52290;PMS5003;39663;45.432;28.050;2023-09-19T00:24:12;18.0;17.0;
52290;PMS5003;39663;45.432;28.050;2023-09-19T00:24:43;16.0;16.0;
52290;PMS5003;39663;45.432;28.050;2023-09-19T00:25:15;17.0;15.0;
52290;PMS5003;39663;45.432;28.050;2023-09-19T00:25:46;17.0;17.0;
52290;PMS5003;39663;45.432;28.050;2023-09-19T00:26:18;17.0;14.0;
52290;PMS5003;39663;45.432;28.050;2023-09-19T00:26:49;19.0;18.0;
52290;PMS5003;39663;45.432;28.050;2023-09-19T00:27:21;20.0;20.0;
52290;PMS5003;39663;45.432;28.050;2023-09-19T00:27:52;16.0;15.0;
52290;PMS5003;39663;45.432;28.050;2023-09-19T00:28:25;15.0;15.0;
52290;PMS5003;39663;45.432;28.050;2023-09-19T00:28:56;16.0;14.0;
52290;PMS5003;39663;45.432;28.050;2023-09-19T00:29:28;15.0;15.0;
52290;PMS5003;39663;45.432;28.050;2023-09-19T00:29:59;18.0;18.0;
52290;PMS5003;39663;45.432;28.050;2023-09-19T00:30:36;20.0;14.0;
52290;PMS5003;39663;45.432;28.050;2023-09-19T00:31:08;17.0;16.0;
52290;PMS5003;39663;45.432;28.050;2023-09-19T00:31:39;19.0;18.0;
52290;PMS5003;39663;45.432;28.050;2023-09-19T00:32:18;28.0;25.0;
52290;PMS5003;39663;45.432;28.050;2023-09-19T00:32:50;18.0;17.0;
52290;PMS5003;39663;45.432;28.050;2023-09-19T00:33:22;16.0;14.0;
52290;PMS5003;39663;45.432;28.050;2023-09-19T00:33:53;20.0;18.0;
52290;PMS5003;39663;45.432;28.050;2023-09-19T00:34:25;14.0;14.0;
52290;PMS5003;39663;45.432;28.050;2023-09-19T00:34:56;15.0;15.0;
52290;PMS5003;39663;45.432;28.050;2023-09-19T00:35:28;19.0;19.0;
52290;PMS5003;39663;45.432;28.050;2023-09-19T00:35:59;17.0;16.0;
52290;PMS5003;39663;45.432;28.050;2023-09-19T00:36:31;14.0;14.0;
52290;PMS5003;39663;45.432;28.050;2023-09-19T00:37:03;12.0;12.0;
52290;PMS5003;39663;45.432;28.050;2023-09-19T00:37:34;17.0;16.0;
52290;PMS5003;39663;45.432;28.050;2023-09-19T00:38:06;15.0;15.0;
52290;PMS5003;39663;45.432;28.050;2023-09-19T00:38:37;14.0;14.0;
52290;PMS5003;39663;45.432;28.050;2023-09-19T00:39:08;15.0;13.0;
52290;PMS5003;39663;45.432;28.050;2023-09-19T00:39:40;14.0;14.0;
52290;PMS5003;39663;45.432;28.050;2023-09-19T00:40:12;14.0;14.0;
52290;PMS5003;39663;45.432;28.050;2023-09-19T00:40:43;16.0;16.0;
52290;PMS5003;39663;45.432;28.050;2023-09-19T00:41:15;20.0;17.0;
52290;PMS5003;39663;45.432;28.050;2023-09-19T00:41:46;18.0;17.0;
52290;PMS5003;39663;45.432;28.050;2023-09-19T00:42:18;17.0;16.0;
52290;PMS5003;39663;45.432;28.050;2023-09-19T00:42:50;14.0;13.0;
52290;PMS5003;39663;45.432;28.050;2023-09-19T00:43:22;18.0;18.0;
52290;PMS5003;39663;45.432;28.050;2023-09-19T00:43:53;14.0;14.0;
52290;PMS5003;39663;45.432;28.050;2023-09-19T00:44:25;14.0;14.0;
52290;PMS5003;39663;45.432;28.050;2023-09-19T00:44:56;13.0;13.0;
52290;PMS5003;39663;45.432;28.050;2023-09-19T00:45:28;13.0;12.0;
52290;PMS5003;39663;45.432;28.050;2023-09-19T00:46:00;21.0;19.0;
52290;PMS5003;39663;45.432;28.050;2023-09-19T00:46:32;16.0;14.0;
52290;PMS5003;39663;45.432;28.050;2023-09-19T00:47:03;17.0;16.0;
52290;PMS5003;39663;45.432;28.050;2023-09-19T00:47:35;16.0;14.0;
52290;PMS5003;39663;45.432;28.050;2023-09-19T00:48:06;14.0;14.0;
52290;PMS5003;39663;45.432;28.050;2023-09-19T00:48:38;14.0;14.0;
52290;PMS5003;39663;45.432;28.050;2023-09-19T00:49:12;15.0;14.0;
52290;PMS5003;39663;45.432;28.050;2023-09-19T00:49:44;15.0;14.0;
52290;PMS5003;39663;45.432;28.050;2023-09-19T00:50:17;17.0;15.0;
52290;PMS5003;39663;45.432;28.050;2023-09-19T00:50:50;24.0;19.0;
52290;PMS5003;39663;45.432;28.050;2023-09-19T00:51:22;16.0;15.0;
52290;PMS5003;39663;45.432;28.050;2023-09-19T00:51:54;15.0;15.0;
52290;PMS5003;39663;45.432;28.050;2023-09-19T00:52:26;17.0;15.0;
52290;PMS5003;39663;45.432;28.050;2023-09-19T00:52:58;15.0;12.0;
52290;PMS5003;39663;45.432;28.050;2023-09-19T00:53:29;20.0;19.0;
52290;PMS5003;39663;45.432;28.050;2023-09-19T00:54:03;14.0;14.0;
52290;PMS5003;39663;45.432;28.050;2023-09-19T00:54:34;22.0;18.0;
52290;PMS5003;39663;45.432;28.050;2023-09-19T00:55:06;19.0;16.0;
52290;PMS5003;39663;45.432;28.050;2023-09-19T00:55:39;15.0;14.0;
52290;PMS5003;39663;45.432;28.050;2023-09-19T00:56:11;16.0;14.0;
52290;PMS5003;39663;45.432;28.050;2023-09-19T00:56:42;17.0;16.0;
52290;PMS5003;39663;45.432;28.050;2023-09-19T00:57:15;16.0;15.0;
52290;PMS5003;39663;45.432;28.050;2023-09-19T00:57:46;16.0;14.0;
52290;PMS5003;39663;45.432;28.050;2023-09-19T00:58:18;18.0;16.0;
52290;PMS5003;39663;45.432;28.050;2023-09-19T00:58:50;17.0;17.0;
52290;PMS5003;39663;45.432;28.050;2023-09-19T00:59:22;16.0;16.0;
52290;PMS5003;39663;45.432;28.050;2023-09-19T00:59:53;16.0;16.0;
52290;PMS5003;39663;45.432;28.050;2023-09-19T01:00:26;12.0;12.0;
52290;PMS5003;39663;45.432;28.050;2023-09-19T01:00:59;16.0;14.0;
52290;PMS5003;39663;45.432;28.050;2023-09-19T01:01:30;16.0;16.0;
52290;PMS5003;39663;45.432;28.050;2023-09-19T01:02:02;15.0;14.0;
52290;PMS5003;39663;45.432;28.050;2023-09-19T01:02:34;17.0;17.0;
52290;PMS5003;39663;45.432;28.050;2023-09-19T01:03:06;17.0;15.0;
52290;PMS5003;39663;45.432;28.050;2023-09-19T01:03:38;16.0;16.0;
52290;PMS5003;39663;45.432;28.050;2023-09-19T01:04:10;17.0;14.0;
52290;PMS5003;39663;45.432;28.050;2023-09-19T01:04:42;18.0;18.0;
52290;PMS5003;39663;45.432;28.050;2023-09-19T01:05:15;19.0;18.0;
52290;PMS5003;39663;45.432;28.050;2023-09-19T01:05:46;15.0;15.0;
52290;PMS5003;39663;45.432;28.050;2023-09-19T01:06:18;19.0;15.0;
52290;PMS5003;39663;45.432;28.050;2023-09-19T01:06:51;16.0;15.0;
52290;PMS5003;39663;45.432;28.050;2023-09-19T01:07:22;17.0;15.0;
52290;PMS5003;39663;45.432;28.050;2023-09-19T01:07:54;13.0;13.0;
52290;PMS5003;39663;45.432;28.050;2023-09-19T01:08:26;16.0;14.0;
52290;PMS5003;39663;45.432;28.050;2023-09-19T01:08:57;18.0;17.0;
52290;PMS5003;39663;45.432;28.050;2023-09-19T01:09:29;16.0;16.0;
52290;PMS5003;39663;45.432;28.050;2023-09-19T01:10:01;16.0;15.0;
52290;PMS5003;39663;45.432;28.050;2023-09-19T01:10:34;15.0;15.0;
52290;PMS5003;39663;45.432;28.050;2023-09-19T01:11:11;16.0;16.0;
52290;PMS5003;39663;45.432;28.050;2023-09-19T01:11:48;17.0;15.0;
52290;PMS5003;39663;45.432;28.050;2023-09-19T01:12:30;17.0;16.0;
52290;PMS5003;39663;45.432;28.050;2023-09-19T01:13:06;14.0;14.0;
52290;PMS5003;39663;45.432;28.050;2023-09-19T01:13:53;17.0;17.0;
52290;PMS5003;39663;45.432;28.050;2023-09-19T01:14:46;16.0;15.0;
52290;PMS5003;39663;45.432;28.050;2023-09-19T01:15:28;15.0;14.0;
52290;PMS5003;39663;45.432;28.050;2023-09-19T01:16:14;17.0;14.0;
52290;PMS5003;39663;45.432;28.050;2023-09-19T01:17:03;12.0;12.0;
52290;PMS5003;39663;45.432;28.050;2023-09-19T01:17:42;19.0;17.0;
52290;PMS5003;39663;45.432;28.050;2023-09-19T01:18:20;16.0;16.0;
52290;PMS5003;39663;45.432;28.050;2023-09-19T01:19:01;21.0;19.0;
52290;PMS5003;39663;45.432;28.050;2023-09-19T01:20:03;18.0;16.0;
52290;PMS5003;39663;45.432;28.050;2023-09-19T01:20:45;19.0;17.0;
52290;PMS5003;39663;45.432;28.050;2023-09-19T01:21:29;16.0;15.0;
52290;PMS5003;39663;45.432;28.050;2023-09-19T01:22:08;15.0;14.0;
52290;PMS5003;39663;45.432;28.050;2023-09-19T01:22:50;17.0;16.0;
52290;PMS5003;39663;45.432;28.050;2023-09-19T01:23:38;16.0;16.0;
52290;PMS5003;39663;45.432;28.050;2023-09-19T01:24:44;18.0;15.0;
52290;PMS5003;39663;45.432;28.050;2023-09-19T01:26:10;14.0;14.0;
52290;PMS5003;39663;45.432;28.050;2023-09-19T01:27:00;16.0;16.0;
52290;PMS5003;39663;45.432;28.050;2023-09-19T01:28:21;16.0;16.0;
52290;PMS5003;39663;45.432;28.050;2023-09-19T01:29:06;18.0;15.0;
52290;PMS5003;39663;45.432;28.050;2023-09-19T01:30:02;17.0;15.0;
52290;PMS5003;39663;45.432;28.050;2023-09-19T01:30:39;16.0;16.0;
52290;PMS5003;39663;45.432;28.050;2023-09-19T01:31:14;19.0;15.0;
52290;PMS5003;39663;45.432;28.050;2023-09-19T01:31:47;18.0;18.0;
52290;PMS5003;39663;45.432;28.050;2023-09-19T01:32:22;14.0;14.0;
52290;PMS5003;39663;45.432;28.050;2023-09-19T01:32:55;16.0;16.0;
52290;PMS5003;39663;45.432;28.050;2023-09-19T01:33:26;16.0;16.0;
52290;PMS5003;39663;45.432;28.050;2023-09-19T01:33:59;18.0;18.0;
52290;PMS5003;39663;45.432;28.050;2023-09-19T01:34:43;14.0;13.0;
52290;PMS5003;39663;45.432;28.050;2023-09-19T01:35:15;18.0;16.0;
52290;PMS5003;39663;45.432;28.050;2023-09-19T01:35:47;25.0;22.0;
52290;PMS5003;39663;45.432;28.050;2023-09-19T01:36:18;19.0;16.0;
52290;PMS5003;39663;45.432;28.050;2023-09-19T01:36:50;21.0;18.0;
52290;PMS5003;39663;45.432;28.050;2023-09-19T01:37:21;18.0;18.0;
52290;PMS5003;39663;45.432;28.050;2023-09-19T01:37:53;17.0;16.0;
52290;PMS5003;39663;45.432;28.050;2023-09-19T01:38:24;15.0;15.0;
52290;PMS5003;39663;45.432;28.050;2023-09-19T01:38:56;19.0;19.0;
52290;PMS5003;39663;45.432;28.050;2023-09-19T01:39:29;15.0;15.0;
52290;PMS5003;39663;45.432;28.050;2023-09-19T01:40:02;14.0;14.0;
52290;PMS5003;39663;45.432;28.050;2023-09-19T01:40:36;18.0;17.0;
52290;PMS5003;39663;45.432;28.050;2023-09-19T01:41:12;21.0;19.0;
52290;PMS5003;39663;45.432;28.050;2023-09-19T01:41:56;17.0;16.0;
52290;PMS5003;39663;45.432;28.050;2023-09-19T01:42:35;18.0;16.0;
52290;PMS5003;39663;45.432;28.050;2023-09-19T01:43:14;17.0;17.0;
52290;PMS5003;39663;45.432;28.050;2023-09-19T01:43:51;16.0;15.0;
52290;PMS5003;39663;45.432;28.050;2023-09-19T01:44:25;15.0;15.0;
52290;PMS5003;39663;45.432;28.050;2023-09-19T01:45:06;15.0;14.0;
52290;PMS5003;39663;45.432;28.050;2023-09-19T01:45:44;17.0;15.0;
52290;PMS5003;39663;45.432;28.050;2023-09-19T01:46:25;17.0;17.0;
52290;PMS5003;39663;45.432;28.050;2023-09-19T01:47:02;19.0;19.0;
52290;PMS5003;39663;45.432;28.050;2023-09-19T01:47:46;16.0;15.0;
52290;PMS5003;39663;45.432;28.050;2023-09-19T01:48:23;21.0;19.0;
52290;PMS5003;39663;45.432;28.050;2023-09-19T01:49:06;13.0;13.0;
52290;PMS5003;39663;45.432;28.050;2023-09-19T01:49:52;20.0;20.0;
52290;PMS5003;39663;45.432;28.050;2023-09-19T01:50:30;19.0;17.0;
52290;PMS5003;39663;45.432;28.050;2023-09-19T01:51:07;20.0;17.0;
52290;PMS5003;39663;45.432;28.050;2023-09-19T01:51:42;16.0;15.0;
52290;PMS5003;39663;45.432;28.050;2023-09-19T01:52:20;16.0;16.0;
52290;PMS5003;39663;45.432;28.050;2023-09-19T01:52:59;19.0;16.0;
52290;PMS5003;39663;45.432;28.050;2023-09-19T01:53:38;19.0;18.0;
52290;PMS5003;39663;45.432;28.050;2023-09-19T01:54:16;17.0;17.0;
52290;PMS5003;39663;45.432;28.050;2023-09-19T01:54:56;21.0;18.0;
52290;PMS5003;39663;45.432;28.050;2023-09-19T01:55:37;21.0;20.0;
52290;PMS5003;39663;45.432;28.050;2023-09-19T01:56:21;17.0;17.0;
52290;PMS5003;39663;45.432;28.050;2023-09-19T01:57:00;18.0;17.0;
52290;PMS5003;39663;45.432;28.050;2023-09-19T01:57:40;20.0;20.0;
52290;PMS5003;39663;45.432;28.050;2023-09-19T01:58:21;21.0;19.0;
52290;PMS5003;39663;45.432;28.050;2023-09-19T01:58:59;16.0;16.0;
52290;PMS5003;39663;45.432;28.050;2023-09-19T01:59:37;18.0;18.0;
52290;PMS5003;39663;45.432;28.050;2023-09-19T02:00:16;18.0;17.0;
52290;PMS5003;39663;45.432;28.050;2023-09-19T02:00:49;22.0;21.0;
52290;PMS5003;39663;45.432;28.050;2023-09-19T02:01:22;17.0;15.0;
52290;PMS5003;39663;45.432;28.050;2023-09-19T02:01:56;24.0;18.0;
52290;PMS5003;39663;45.432;28.050;2023-09-19T02:02:28;17.0;16.0;
52290;PMS5003;39663;45.432;28.050;2023-09-19T02:03:00;18.0;17.0;
52290;PMS5003;39663;45.432;28.050;2023-09-19T02:03:33;15.0;15.0;
52290;PMS5003;39663;45.432;28.050;2023-09-19T02:04:06;20.0;19.0;
52290;PMS5003;39663;45.432;28.050;2023-09-19T02:04:38;17.0;17.0;
52290;PMS5003;39663;45.432;28.050;2023-09-19T02:05:10;22.0;18.0;
52290;PMS5003;39663;45.432;28.050;2023-09-19T02:05:47;18.0;18.0;
52290;PMS5003;39663;45.432;28.050;2023-09-19T02:06:20;17.0;17.0;
52290;PMS5003;39663;45.432;28.050;2023-09-19T02:06:52;21.0;18.0;
52290;PMS5003;39663;45.432;28.050;2023-09-19T02:07:24;22.0;19.0;
52290;PMS5003;39663;45.432;28.050;2023-09-19T02:07:55;19.0;16.0;
52290;PMS5003;39663;45.432;28.050;2023-09-19T02:08:27;19.0;17.0;
52290;PMS5003;39663;45.432;28.050;2023-09-19T02:08:59;18.0;17.0;
52290;PMS5003;39663;45.432;28.050;2023-09-19T02:09:30;22.0;21.0;
52290;PMS5003;39663;45.432;28.050;2023-09-19T02:10:02;14.0;14.0;
52290;PMS5003;39663;45.432;28.050;2023-09-19T02:10:34;18.0;18.0;
52290;PMS5003;39663;45.432;28.050;2023-09-19T02:11:05;23.0;19.0;
52290;PMS5003;39663;45.432;28.050;2023-09-19T02:11:37;17.0;15.0;
52290;PMS5003;39663;45.432;28.050;2023-09-19T02:12:09;20.0;17.0;
52290;PMS5003;39663;45.432;28.050;2023-09-19T02:12:40;24.0;24.0;
52290;PMS5003;39663;45.432;28.050;2023-09-19T02:13:12;17.0;15.0;
52290;PMS5003;39663;45.432;28.050;2023-09-19T02:13:44;18.0;18.0;
52290;PMS5003;39663;45.432;28.050;2023-09-19T02:14:16;25.0;21.0;
52290;PMS5003;39663;45.432;28.050;2023-09-19T02:14:47;18.0;18.0;
52290;PMS5003;39663;45.432;28.050;2023-09-19T02:15:18;21.0;20.0;
52290;PMS5003;39663;45.432;28.050;2023-09-19T02:15:50;20.0;20.0;
52290;PMS5003;39663;45.432;28.050;2023-09-19T02:16:22;19.0;18.0;
52290;PMS5003;39663;45.432;28.050;2023-09-19T02:16:53;19.0;19.0;
52290;PMS5003;39663;45.432;28.050;2023-09-19T02:17:25;21.0;20.0;
52290;PMS5003;39663;45.432;28.050;2023-09-19T02:17:56;17.0;16.0;
52290;PMS5003;39663;45.432;28.050;2023-09-19T02:18:28;27.0;23.0;
52290;PMS5003;39663;45.432;28.050;2023-09-19T02:18:59;18.0;18.0;
52290;PMS5003;39663;45.432;28.050;2023-09-19T02:19:31;20.0;17.0;
52290;PMS5003;39663;45.432;28.050;2023-09-19T02:20:02;23.0;20.0;
52290;PMS5003;39663;45.432;28.050;2023-09-19T02:20:34;19.0;17.0;
52290;PMS5003;39663;45.432;28.050;2023-09-19T02:21:06;18.0;17.0;
52290;PMS5003;39663;45.432;28.050;2023-09-19T02:21:38;17.0;17.0;
52290;PMS5003;39663;45.432;28.050;2023-09-19T02:22:09;20.0;19.0;
52290;PMS5003;39663;45.432;28.050;2023-09-19T02:22:41;23.0;19.0;
52290;PMS5003;39663;45.432;28.050;2023-09-19T02:23:13;18.0;18.0;
52290;PMS5003;39663;45.432;28.050;2023-09-19T02:23:45;19.0;18.0;
52290;PMS5003;39663;45.432;28.050;2023-09-19T02:24:16;20.0;19.0;
52290;PMS5003;39663;45.432;28.050;2023-09-19T02:24:48;25.0;24.0;
52290;PMS5003;39663;45.432;28.050;2023-09-19T02:25:19;19.0;19.0;
52290;PMS5003;39663;45.432;28.050;2023-09-19T02:25:52;19.0;17.0;
52290;PMS5003;39663;45.432;28.050;2023-09-19T02:26:24;21.0;20.0;
52290;PMS5003;39663;45.432;28.050;2023-09-19T02:26:55;26.0;24.0;
52290;PMS5003;39663;45.432;28.050;2023-09-19T02:27:27;29.0;27.0;
52290;PMS5003;39663;45.432;28.050;2023-09-19T02:27:58;22.0;22.0;
52290;PMS5003;39663;45.432;28.050;2023-09-19T02:28:30;19.0;19.0;
52290;PMS5003;39663;45.432;28.050;2023-09-19T02:29:01;18.0;18.0;
52290;PMS5003;39663;45.432;28.050;2023-09-19T02:29:33;28.0;26.0;
52290;PMS5003;39663;45.432;28.050;2023-09-19T02:30:05;20.0;18.0;
52290;PMS5003;39663;45.432;28.050;2023-09-19T02:30:37;20.0;18.0;
52290;PMS5003;39663;45.432;28.050;2023-09-19T02:31:09;19.0;19.0;
52290;PMS5003;39663;45.432;28.050;2023-09-19T02:31:40;20.0;18.0;
52290;PMS5003;39663;45.432;28.050;2023-09-19T02:32:11;20.0;19.0;
52290;PMS5003;39663;45.432;28.050;2023-09-19T02:32:43;24.0;21.0;
52290;PMS5003;39663;45.432;28.050;2023-09-19T02:33:14;19.0;18.0;
52290;PMS5003;39663;45.432;28.050;2023-09-19T02:33:46;19.0;18.0;
52290;PMS5003;39663;45.432;28.050;2023-09-19T02:34:17;23.0;22.0;
52290;PMS5003;39663;45.432;28.050;2023-09-19T02:34:49;23.0;20.0;
52290;PMS5003;39663;45.432;28.050;2023-09-19T02:35:21;27.0;27.0;
52290;PMS5003;39663;45.432;28.050;2023-09-19T02:35:54;21.0;18.0;
52290;PMS5003;39663;45.432;28.050;2023-09-19T02:36:26;15.0;15.0;
52290;PMS5003;39663;45.432;28.050;2023-09-19T02:36:57;23.0;20.0;
52290;PMS5003;39663;45.432;28.050;2023-09-19T02:37:29;17.0;17.0;
52290;PMS5003;39663;45.432;28.050;2023-09-19T02:38:01;22.0;22.0;
52290;PMS5003;39663;45.432;28.050;2023-09-19T02:38:32;26.0;24.0;
52290;PMS5003;39663;45.432;28.050;2023-09-19T02:39:04;25.0;23.0;
52290;PMS5003;39663;45.432;28.050;2023-09-19T02:39:35;33.0;28.0;
52290;PMS5003;39663;45.432;28.050;2023-09-19T02:40:08;28.0;24.0;
52290;PMS5003;39663;45.432;28.050;2023-09-19T02:40:39;31.0;29.0;
52290;PMS5003;39663;45.432;28.050;2023-09-19T02:41:11;31.0;28.0;
52290;PMS5003;39663;45.432;28.050;2023-09-19T02:41:43;28.0;28.0;
52290;PMS5003;39663;45.432;28.050;2023-09-19T02:42:14;29.0;27.0;
52290;PMS5003;39663;45.432;28.050;2023-09-19T02:42:46;24.0;23.0;
52290;PMS5003;39663;45.432;28.050;2023-09-19T02:43:18;31.0;29.0;
52290;PMS5003;39663;45.432;28.050;2023-09-19T02:43:49;31.0;28.0;
52290;PMS5003;39663;45.432;28.050;2023-09-19T02:44:21;30.0;29.0;
52290;PMS5003;39663;45.432;28.050;2023-09-19T02:44:53;31.0;31.0;
52290;PMS5003;39663;45.432;28.050;2023-09-19T02:45:24;32.0;31.0;
52290;PMS5003;39663;45.432;28.050;2023-09-19T02:45:56;29.0;28.0;
52290;PMS5003;39663;45.432;28.050;2023-09-19T02:46:27;30.0;28.0;
52290;PMS5003;39663;45.432;28.050;2023-09-19T02:46:59;31.0;27.0;
52290;PMS5003;39663;45.432;28.050;2023-09-19T02:47:31;32.0;31.0;
52290;PMS5003;39663;45.432;28.050;2023-09-19T02:48:02;28.0;26.0;
52290;PMS5003;39663;45.432;28.050;2023-09-19T02:48:34;23.0;23.0;
52290;PMS5003;39663;45.432;28.050;2023-09-19T02:49:06;29.0;27.0;
52290;PMS5003;39663;45.432;28.050;2023-09-19T02:49:37;33.0;31.0;
52290;PMS5003;39663;45.432;28.050;2023-09-19T02:50:09;30.0;26.0;
52290;PMS5003;39663;45.432;28.050;2023-09-19T02:50:41;31.0;30.0;
52290;PMS5003;39663;45.432;28.050;2023-09-19T02:51:12;32.0;28.0;
52290;PMS5003;39663;45.432;28.050;2023-09-19T02:51:44;26.0;24.0;
52290;PMS5003;39663;45.432;28.050;2023-09-19T02:52:15;28.0;28.0;
52290;PMS5003;39663;45.432;28.050;2023-09-19T02:52:47;25.0;25.0;
52290;PMS5003;39663;45.432;28.050;2023-09-19T02:53:18;27.0;24.0;
52290;PMS5003;39663;45.432;28.050;2023-09-19T02:53:50;30.0;30.0;
52290;PMS5003;39663;45.432;28.050;2023-09-19T02:54:21;27.0;24.0;
52290;PMS5003;39663;45.432;28.050;2023-09-19T02:54:53;35.0;35.0;
52290;PMS5003;39663;45.432;28.050;2023-09-19T02:55:24;30.0;30.0;
52290;PMS5003;39663;45.432;28.050;2023-09-19T02:55:56;34.0;30.0;
52290;PMS5003;39663;45.432;28.050;2023-09-19T02:56:27;24.0;23.0;
52290;PMS5003;39663;45.432;28.050;2023-09-19T02:56:59;33.0;29.0;
52290;PMS5003;39663;45.432;28.050;2023-09-19T02:57:30;26.0;25.0;
52290;PMS5003;39663;45.432;28.050;2023-09-19T02:58:02;28.0;25.0;
52290;PMS5003;39663;45.432;28.050;2023-09-19T02:58:34;33.0;31.0;
52290;PMS5003;39663;45.432;28.050;2023-09-19T02:59:05;32.0;29.0;
52290;PMS5003;39663;45.432;28.050;2023-09-19T02:59:36;27.0;26.0;
52290;PMS5003;39663;45.432;28.050;2023-09-19T03:00:08;28.0;26.0;
52290;PMS5003;39663;45.432;28.050;2023-09-19T03:00:41;26.0;24.0;
52290;PMS5003;39663;45.432;28.050;2023-09-19T03:01:13;24.0;23.0;
52290;PMS5003;39663;45.432;28.050;2023-09-19T03:01:44;27.0;21.0;
52290;PMS5003;39663;45.432;28.050;2023-09-19T03:02:16;25.0;23.0;
52290;PMS5003;39663;45.432;28.050;2023-09-19T03:02:48;25.0;22.0;
52290;PMS5003;39663;45.432;28.050;2023-09-19T03:03:20;23.0;19.0;
52290;PMS5003;39663;45.432;28.050;2023-09-19T03:03:51;20.0;18.0;
52290;PMS5003;39663;45.432;28.050;2023-09-19T03:04:22;28.0;26.0;
52290;PMS5003;39663;45.432;28.050;2023-09-19T03:04:54;37.0;33.0;
52290;PMS5003;39663;45.432;28.050;2023-09-19T03:05:26;32.0;31.0;
52290;PMS5003;39663;45.432;28.050;2023-09-19T03:05:57;29.0;27.0;
52290;PMS5003;39663;45.432;28.050;2023-09-19T03:06:29;32.0;28.0;
52290;PMS5003;39663;45.432;28.050;2023-09-19T03:07:00;31.0;29.0;
52290;PMS5003;39663;45.432;28.050;2023-09-19T03:07:31;51.0;48.0;
52290;PMS5003;39663;45.432;28.050;2023-09-19T03:08:03;37.0;34.0;
52290;PMS5003;39663;45.432;28.050;2023-09-19T03:08:35;35.0;33.0;
52290;PMS5003;39663;45.432;28.050;2023-09-19T03:09:06;30.0;28.0;
52290;PMS5003;39663;45.432;28.050;2023-09-19T03:09:38;37.0;35.0;
52290;PMS5003;39663;45.432;28.050;2023-09-19T03:10:09;26.0;24.0;
52290;PMS5003;39663;45.432;28.050;2023-09-19T03:10:41;22.0;20.0;
52290;PMS5003;39663;45.432;28.050;2023-09-19T03:11:12;23.0;23.0;
52290;PMS5003;39663;45.432;28.050;2023-09-19T03:11:44;23.0;22.0;
52290;PMS5003;39663;45.432;28.050;2023-09-19T03:12:15;22.0;22.0;
52290;PMS5003;39663;45.432;28.050;2023-09-19T03:12:46;30.0;28.0;
52290;PMS5003;39663;45.432;28.050;2023-09-19T03:13:18;27.0;24.0;
52290;PMS5003;39663;45.432;28.050;2023-09-19T03:13:51;28.0;22.0;
52290;PMS5003;39663;45.432;28.050;2023-09-19T03:14:23;29.0;24.0;
52290;PMS5003;39663;45.432;28.050;2023-09-19T03:14:54;25.0;24.0;
52290;PMS5003;39663;45.432;28.050;2023-09-19T03:15:25;21.0;21.0;
52290;PMS5003;39663;45.432;28.050;2023-09-19T03:15:57;22.0;22.0;
52290;PMS5003;39663;45.432;28.050;2023-09-19T03:16:29;21.0;20.0;
52290;PMS5003;39663;45.432;28.050;2023-09-19T03:17:00;24.0;21.0;
52290;PMS5003;39663;45.432;28.050;2023-09-19T03:17:32;23.0;22.0;
52290;PMS5003;39663;45.432;28.050;2023-09-19T03:18:04;27.0;24.0;
52290;PMS5003;39663;45.432;28.050;2023-09-19T03:18:35;27.0;22.0;
52290;PMS5003;39663;45.432;28.050;2023-09-19T03:19:07;21.0;18.0;
52290;PMS5003;39663;45.432;28.050;2023-09-19T03:19:38;21.0;21.0;
52290;PMS5003;39663;45.432;28.050;2023-09-19T03:20:10;19.0;18.0;
52290;PMS5003;39663;45.432;28.050;2023-09-19T03:20:42;55.0;49.0;
52290;PMS5003;39663;45.432;28.050;2023-09-19T03:21:13;53.0;48.0;
52290;PMS5003;39663;45.432;28.050;2023-09-19T03:21:45;25.0;25.0;
52290;PMS5003;39663;45.432;28.050;2023-09-19T03:22:16;25.0;20.0;
52290;PMS5003;39663;45.432;28.050;2023-09-19T03:22:48;25.0;19.0;
52290;PMS5003;39663;45.432;28.050;2023-09-19T03:23:19;24.0;21.0;
52290;PMS5003;39663;45.432;28.050;2023-09-19T03:23:50;26.0;22.0;
52290;PMS5003;39663;45.432;28.050;2023-09-19T03:24:22;31.0;27.0;
52290;PMS5003;39663;45.432;28.050;2023-09-19T03:24:54;30.0;28.0;
52290;PMS5003;39663;45.432;28.050;2023-09-19T03:25:25;41.0;39.0;
52290;PMS5003;39663;45.432;28.050;2023-09-19T03:25:56;41.0;37.0;